createdAt,value
2023-03-11T00:00:48.801Z,78.59
2023-03-11T00:01:48.810Z,79.28
2023-03-11T00:02:48.783Z,78.76
2023-03-11T00:03:48.800Z,79.63
2023-03-11T00:04:48.848Z,79.52
2023-03-11T00:05:48.787Z,79.52
2023-03-11T00:06:48.787Z,79.11
2023-03-11T00:07:48.788Z,79.83
2023-03-11T00:08:48.782Z,79.32
2023-03-11T00:09:48.802Z,79.52
2023-03-11T00:10:48.811Z,79.73
2023-03-11T00:11:48.755Z,80.19
2023-03-11T00:12:48.755Z,79.25
2023-03-11T00:13:48.750Z,79.73
2023-03-11T00:14:48.752Z,79.52
2023-03-11T00:15:48.766Z,79.63
2023-03-11T00:16:48.803Z,79.83
2023-03-11T00:17:48.733Z,79.00
2023-03-11T00:18:48.708Z,79.73
2023-03-11T00:19:48.707Z,79.63
2023-03-11T00:20:48.730Z,79.32
2023-03-11T00:21:48.689Z,79.11
2023-03-11T00:22:48.701Z,79.11
2023-03-11T00:23:48.704Z,79.32
2023-03-11T00:24:48.695Z,79.73
2023-03-11T00:25:48.667Z,79.35
2023-03-11T00:26:48.665Z,79.63
2023-03-11T00:27:48.676Z,80.50
2023-03-11T00:28:48.684Z,80.26
2023-03-11T00:29:48.661Z,80.19
2023-03-11T00:30:48.742Z,79.83
2023-03-11T00:31:48.674Z,79.21
2023-03-11T00:32:48.697Z,79.77
2023-03-11T00:33:48.658Z,78.80
2023-03-11T00:34:48.641Z,78.17
2023-03-11T00:35:48.626Z,78.28
2023-03-11T00:36:48.626Z,78.59
2023-03-11T00:37:48.629Z,79.11
2023-03-11T00:38:48.650Z,79.00
2023-03-11T00:39:48.618Z,80.36
2023-03-11T00:40:48.588Z,78.90
2023-03-11T00:41:48.609Z,79.00
2023-03-11T00:42:48.607Z,78.90
2023-03-11T00:43:48.573Z,79.00
2023-03-11T00:44:48.582Z,79.52
2023-03-11T00:45:48.629Z,79.11
2023-03-11T00:46:48.572Z,79.21
2023-03-11T00:47:48.588Z,79.63
2023-03-11T00:48:48.557Z,79.00
2023-03-11T00:49:48.539Z,79.00
2023-03-11T00:50:48.562Z,79.21
2023-03-11T00:51:48.589Z,79.32
2023-03-11T00:52:48.555Z,79.35
2023-03-11T00:53:48.535Z,79.14
2023-03-11T00:54:48.518Z,78.83
2023-03-11T00:55:48.542Z,78.42
2023-03-11T00:56:48.516Z,78.83
2023-03-11T00:57:48.520Z,79.25
2023-03-11T00:58:48.527Z,78.63
2023-03-11T00:59:48.491Z,78.07
2023-03-11T01:00:48.489Z,78.59
2023-03-11T01:01:48.501Z,78.28
2023-03-11T01:02:48.518Z,78.69
2023-03-11T01:03:48.481Z,78.69
2023-03-11T01:04:48.543Z,78.83
2023-03-11T01:05:48.466Z,78.69
2023-03-11T01:06:48.472Z,78.80
2023-03-11T01:07:48.483Z,78.31
2023-03-11T01:08:48.498Z,79.21
2023-03-11T01:09:48.447Z,79.04
2023-03-11T01:10:48.450Z,78.59
2023-03-11T01:11:48.435Z,79.14
2023-03-11T01:12:48.440Z,79.35
2023-03-11T01:13:48.416Z,78.63
2023-03-11T01:14:48.480Z,78.59
2023-03-11T01:15:48.424Z,78.83
2023-03-11T01:16:48.414Z,78.10
2023-03-11T01:17:48.408Z,78.28
2023-03-11T01:18:48.393Z,78.52
2023-03-11T01:19:48.412Z,79.25
2023-03-11T01:20:48.411Z,79.21
2023-03-11T01:21:48.380Z,78.80
2023-03-11T01:22:48.410Z,78.38
2023-03-11T01:23:48.360Z,78.80
2023-03-11T01:24:48.372Z,79.56
2023-03-11T01:25:48.360Z,79.46
2023-03-11T01:26:48.343Z,79.04
2023-03-11T01:27:48.334Z,78.83
2023-03-11T01:28:48.374Z,79.14
2023-03-11T01:29:48.333Z,79.04
2023-03-11T01:30:48.335Z,79.35
2023-03-11T01:31:48.327Z,78.59
2023-03-11T01:32:48.365Z,79.25
2023-03-11T01:33:48.310Z,79.21
2023-03-11T01:34:48.315Z,79.11
2023-03-11T01:35:48.309Z,78.90
2023-03-11T01:36:48.306Z,79.21
2023-03-11T01:37:48.338Z,78.80
2023-03-11T01:38:48.313Z,78.69
2023-03-11T01:39:48.271Z,79.63
2023-03-11T01:40:48.281Z,78.59
2023-03-11T01:41:48.275Z,79.21
2023-03-11T01:42:48.279Z,79.21
2023-03-11T01:43:48.259Z,79.11
2023-03-11T01:44:48.265Z,78.90
2023-03-11T01:45:48.249Z,79.11
2023-03-11T01:46:48.342Z,78.80
2023-03-11T01:47:48.220Z,79.25
2023-03-11T01:48:48.235Z,79.66
2023-03-11T01:49:48.231Z,80.05
2023-03-11T01:50:48.221Z,80.19
2023-03-11T01:51:48.202Z,80.19
2023-03-11T01:52:48.216Z,79.66
2023-03-11T01:53:48.234Z,79.77
2023-03-11T01:54:50.154Z,79.87
2023-03-11T01:55:48.182Z,80.26
2023-03-11T01:56:48.191Z,80.29
2023-03-11T01:57:48.186Z,79.46
2023-03-11T01:58:48.172Z,78.90
2023-03-11T01:59:48.203Z,78.52
2023-03-11T02:00:48.232Z,78.49
2023-03-11T02:01:48.305Z,77.75
2023-03-11T02:02:48.202Z,78.31
2023-03-11T02:03:48.144Z,78.10
2023-03-11T02:04:48.144Z,78.42
2023-03-11T02:05:48.160Z,77.93
2023-03-11T02:06:48.122Z,78.20
2023-03-11T02:07:48.120Z,77.89
2023-03-11T02:08:48.113Z,77.41
2023-03-11T02:09:48.107Z,76.89
2023-03-11T02:10:48.110Z,76.23
2023-03-11T02:11:48.130Z,74.98
2023-03-11T02:12:48.114Z,75.29
2023-03-11T02:13:48.105Z,74.98
2023-03-11T02:14:48.122Z,74.56
2023-03-11T02:15:48.184Z,75.09
2023-03-11T02:16:48.091Z,74.15
2023-03-11T02:17:48.081Z,73.35
2023-03-11T02:18:48.074Z,73.83
2023-03-11T02:19:48.050Z,71.99
2023-03-11T02:20:48.088Z,73.14
2023-03-11T02:21:48.081Z,75.05
2023-03-11T02:22:48.046Z,75.05
2023-03-11T02:23:48.064Z,74.11
2023-03-11T02:24:48.039Z,73.49
2023-03-11T02:25:48.036Z,73.14
2023-03-11T02:26:48.038Z,73.14
2023-03-11T02:27:48.023Z,72.72
2023-03-11T02:28:48.016Z,73.97
2023-03-11T02:29:48.029Z,73.45
2023-03-11T02:30:48.017Z,74.07
2023-03-11T02:31:48.077Z,73.45
2023-03-11T02:32:48.078Z,72.62
2023-03-11T02:33:47.990Z,72.51
2023-03-11T02:34:47.985Z,71.78
2023-03-11T02:35:48.039Z,71.58
2023-03-11T02:36:47.980Z,70.95
2023-03-11T02:37:47.992Z,72.51
2023-03-11T02:38:47.975Z,73.24
2023-03-11T02:39:47.951Z,73.80
2023-03-11T02:40:47.990Z,73.07
2023-03-11T02:41:47.944Z,72.02
2023-03-11T02:42:48.046Z,71.16
2023-03-11T02:43:47.928Z,72.24
2023-03-11T02:44:47.926Z,72.44
2023-03-11T02:45:47.932Z,72.02
2023-03-11T02:46:47.993Z,72.24
2023-03-11T02:47:47.898Z,71.40
2023-03-11T02:48:47.935Z,71.40
2023-03-11T02:49:47.911Z,71.05
2023-03-11T02:50:47.882Z,71.19
2023-03-11T02:51:47.893Z,71.71
2023-03-11T02:52:47.867Z,71.71
2023-03-11T02:53:47.859Z,72.44
2023-03-11T02:54:47.866Z,72.13
2023-03-11T02:55:47.865Z,71.37
2023-03-11T02:56:47.857Z,71.26
2023-03-11T02:57:47.852Z,71.58
2023-03-11T02:58:47.841Z,71.78
2023-03-11T02:59:47.826Z,71.16
2023-03-11T03:00:47.899Z,71.05
2023-03-11T03:01:47.839Z,72.13
2023-03-11T03:02:47.813Z,72.65
2023-03-11T03:03:47.846Z,73.17
2023-03-11T03:04:47.842Z,72.02
2023-03-11T03:05:47.806Z,71.09
2023-03-11T03:06:47.791Z,71.33
2023-03-11T03:07:47.788Z,71.01
2023-03-11T03:08:47.790Z,70.39
2023-03-11T03:09:47.791Z,70.07
2023-03-11T03:10:47.783Z,71.43
2023-03-11T03:11:47.777Z,71.95
2023-03-11T03:12:47.759Z,72.47
2023-03-11T03:13:47.788Z,73.41
2023-03-11T03:14:47.772Z,72.78
2023-03-11T03:15:47.750Z,71.75
2023-03-11T03:16:47.897Z,73.00
2023-03-11T03:17:47.747Z,73.52
2023-03-11T03:18:47.738Z,73.00
2023-03-11T03:19:47.744Z,72.89
2023-03-11T03:20:47.729Z,73.72
2023-03-11T03:21:47.726Z,73.90
2023-03-11T03:22:47.709Z,73.00
2023-03-11T03:23:47.703Z,72.27
2023-03-11T03:24:47.702Z,73.10
2023-03-11T03:25:47.710Z,72.13
2023-03-11T03:26:47.699Z,72.75
2023-03-11T03:27:47.689Z,72.44
2023-03-11T03:28:47.686Z,72.44
2023-03-11T03:29:47.696Z,73.17
2023-03-11T03:30:47.689Z,73.69
2023-03-11T03:31:47.666Z,73.93
2023-03-11T03:32:47.724Z,74.66
2023-03-11T03:33:47.651Z,74.84
2023-03-11T03:34:47.652Z,75.78
2023-03-11T03:35:47.684Z,76.43
2023-03-11T03:36:47.651Z,76.02
2023-03-11T03:37:47.632Z,74.98
2023-03-11T03:38:47.628Z,74.77
2023-03-11T03:39:47.617Z,74.98
2023-03-11T03:40:47.617Z,74.15
2023-03-11T03:41:47.640Z,74.11
2023-03-11T03:42:47.609Z,73.90
2023-03-11T03:43:47.595Z,74.98
2023-03-11T03:44:47.595Z,74.77
2023-03-11T03:45:47.607Z,75.08
2023-03-11T03:46:47.585Z,74.87
2023-03-11T03:47:47.596Z,75.60
2023-03-11T03:48:47.574Z,76.75
2023-03-11T03:49:47.563Z,74.04
2023-03-11T03:50:47.568Z,74.56
2023-03-11T03:51:47.551Z,74.46
2023-03-11T03:52:47.579Z,74.98
2023-03-11T03:53:47.557Z,75.50
2023-03-11T03:54:47.540Z,74.87
2023-03-11T03:55:47.536Z,75.05
2023-03-11T03:56:47.542Z,75.05
2023-03-11T03:57:47.526Z,73.80
2023-03-11T03:58:47.547Z,74.32
2023-03-11T03:59:47.519Z,74.15
2023-03-11T04:00:47.524Z,74.35
2023-03-11T04:01:47.510Z,75.12
2023-03-11T04:02:47.512Z,74.56
2023-03-11T04:03:47.597Z,74.32
2023-03-11T04:04:47.523Z,74.87
2023-03-11T04:05:47.502Z,74.56
2023-03-11T04:06:47.495Z,74.25
2023-03-11T04:07:47.497Z,73.31
2023-03-11T04:08:47.480Z,74.66
2023-03-11T04:09:47.507Z,73.72
2023-03-11T04:10:47.502Z,73.83
2023-03-11T04:11:47.466Z,75.32
2023-03-11T04:12:47.476Z,76.06
2023-03-11T04:13:47.469Z,76.47
2023-03-11T04:14:47.464Z,76.12
2023-03-11T04:15:47.476Z,75.81
2023-03-11T04:16:47.493Z,75.50
2023-03-11T04:17:47.449Z,76.02
2023-03-11T04:18:47.464Z,76.65
2023-03-11T04:19:47.444Z,75.08
2023-03-11T04:20:47.434Z,75.60
2023-03-11T04:21:47.417Z,76.65
2023-03-11T04:22:47.440Z,77.10
2023-03-11T04:23:47.417Z,77.06
2023-03-11T04:24:47.410Z,77.51
2023-03-11T04:25:47.408Z,77.51
2023-03-11T04:26:47.413Z,77.17
2023-03-11T04:27:47.381Z,77.06
2023-03-11T04:28:47.446Z,76.65
2023-03-11T04:29:47.362Z,76.43
2023-03-11T04:30:47.403Z,76.96
2023-03-11T04:31:47.354Z,76.61
2023-03-11T04:32:47.409Z,76.51
2023-03-11T04:33:47.349Z,76.40
2023-03-11T04:34:47.406Z,77.34
2023-03-11T04:35:47.384Z,78.11
2023-03-11T04:36:47.347Z,77.03
2023-03-11T04:37:47.342Z,76.51
2023-03-11T04:38:47.342Z,76.72
2023-03-11T04:39:47.363Z,77.06
2023-03-11T04:40:47.316Z,76.54
2023-03-11T04:41:47.329Z,77.58
2023-03-11T04:42:47.322Z,77.27
2023-03-11T04:43:47.293Z,77.37
2023-03-11T04:44:47.305Z,76.82
2023-03-11T04:45:47.458Z,77.23
2023-03-11T04:46:47.287Z,76.40
2023-03-11T04:47:47.296Z,74.91
2023-03-11T04:48:47.289Z,76.37
2023-03-11T04:49:47.267Z,75.78
2023-03-11T04:50:47.308Z,76.20
2023-03-11T04:51:47.285Z,76.82
2023-03-11T04:52:47.247Z,76.72
2023-03-11T04:53:47.246Z,76.92
2023-03-11T04:54:47.232Z,76.92
2023-03-11T04:55:47.245Z,77.03
2023-03-11T04:56:47.238Z,77.13
2023-03-11T04:57:47.245Z,77.23
2023-03-11T04:58:47.245Z,77.13
2023-03-11T04:59:47.221Z,77.13
2023-03-11T05:00:47.204Z,77.34
2023-03-11T05:01:47.294Z,77.66
2023-03-11T05:02:47.210Z,77.13
2023-03-11T05:03:47.180Z,77.34
2023-03-11T05:04:47.223Z,77.45
2023-03-11T05:05:47.166Z,77.66
2023-03-11T05:06:47.166Z,77.34
2023-03-11T05:07:47.179Z,77.34
2023-03-11T05:08:47.148Z,77.45
2023-03-11T05:09:47.152Z,77.20
2023-03-11T05:10:47.147Z,77.45
2023-03-11T05:11:47.136Z,77.93
2023-03-11T05:12:47.169Z,78.28
2023-03-11T05:13:47.137Z,78.49
2023-03-11T05:14:47.125Z,78.69
2023-03-11T05:15:47.160Z,79.32
2023-03-11T05:16:47.146Z,79.11
2023-03-11T05:17:47.109Z,79.53
2023-03-11T05:18:47.099Z,80.36
2023-03-11T05:19:47.092Z,80.26
2023-03-11T05:20:48.022Z,81.51
2023-03-11T05:21:47.077Z,80.78
2023-03-11T05:22:47.099Z,81.30
2023-03-11T05:23:47.071Z,80.47
2023-03-11T05:24:47.071Z,80.47
2023-03-11T05:25:47.095Z,79.53
2023-03-11T05:26:48.580Z,79.60
2023-03-11T05:27:47.053Z,80.22
2023-03-11T05:28:47.049Z,80.43
2023-03-11T05:29:47.042Z,80.78
2023-03-11T05:30:47.129Z,81.20
2023-03-11T05:31:47.026Z,80.78
2023-03-11T05:32:47.084Z,81.20
2023-03-11T05:33:47.015Z,80.54
2023-03-11T05:34:47.017Z,81.41
2023-03-11T05:35:47.064Z,82.03
2023-03-11T05:36:47.031Z,82.14
2023-03-11T05:37:47.014Z,81.99
2023-03-11T05:38:46.997Z,81.58
2023-03-11T05:39:46.987Z,81.99
2023-03-11T05:40:46.995Z,81.89
2023-03-11T05:41:46.990Z,82.20
2023-03-11T05:42:46.987Z,81.82
2023-03-11T05:43:46.994Z,82.45
2023-03-11T05:44:46.973Z,83.07
2023-03-11T05:45:46.971Z,83.18
2023-03-11T05:46:46.996Z,83.18
2023-03-11T05:47:46.954Z,83.59
2023-03-11T05:48:46.942Z,82.87
2023-03-11T05:49:46.955Z,83.07
2023-03-11T05:50:46.938Z,83.07
2023-03-11T05:51:46.937Z,83.28
2023-03-11T05:52:46.925Z,84.16
2023-03-11T05:53:46.912Z,84.33
2023-03-11T05:54:46.913Z,84.53
2023-03-11T05:55:46.938Z,84.99
2023-03-11T05:56:46.915Z,85.76
2023-03-11T05:57:46.891Z,86.38
2023-03-11T05:58:46.890Z,85.82
2023-03-11T05:59:46.893Z,82.94
2023-03-11T06:00:46.886Z,83.98
2023-03-11T06:01:46.881Z,85.44
2023-03-11T06:02:46.878Z,84.92
2023-03-11T06:03:46.954Z,82.00
2023-03-11T06:04:46.989Z,82.94
2023-03-11T06:05:46.863Z,83.98
2023-03-11T06:06:46.859Z,82.63
2023-03-11T06:07:46.834Z,82.42
2023-03-11T06:08:46.826Z,82.21
2023-03-11T06:09:47.057Z,82.42
2023-03-11T06:10:48.867Z,82.63
2023-03-11T06:11:46.809Z,82.38
2023-03-11T06:12:46.807Z,81.86
2023-03-11T06:13:46.812Z,82.48
2023-03-11T06:14:46.795Z,82.80
2023-03-11T06:15:46.777Z,82.48
2023-03-11T06:16:46.781Z,81.23
2023-03-11T06:17:46.794Z,80.96
2023-03-11T06:18:46.772Z,79.77
2023-03-11T06:19:46.816Z,79.36
2023-03-11T06:20:46.769Z,79.25
2023-03-11T06:21:46.751Z,79.25
2023-03-11T06:22:46.757Z,79.25
2023-03-11T06:23:46.741Z,79.32
2023-03-11T06:24:46.750Z,79.46
2023-03-11T06:25:46.761Z,79.05
2023-03-11T06:26:46.721Z,79.77
2023-03-11T06:27:46.716Z,80.71
2023-03-11T06:28:46.729Z,78.42
2023-03-11T06:29:48.692Z,78.94
2023-03-11T06:30:46.715Z,79.15
2023-03-11T06:31:46.737Z,79.22
2023-03-11T06:32:46.705Z,78.80
2023-03-11T06:33:46.695Z,77.69
2023-03-11T06:34:46.677Z,78.21
2023-03-11T06:35:46.703Z,78.94
2023-03-11T06:36:46.662Z,78.73
2023-03-11T06:37:46.657Z,78.91
2023-03-11T06:38:46.656Z,78.38
2023-03-11T06:39:46.644Z,77.97
2023-03-11T06:40:46.634Z,77.45
2023-03-11T06:41:46.669Z,76.99
2023-03-11T06:42:46.636Z,77.03
2023-03-11T06:43:46.626Z,76.99
2023-03-11T06:44:46.622Z,77.51
2023-03-11T06:45:46.637Z,77.41
2023-03-11T06:46:46.603Z,76.68
2023-03-11T06:47:46.605Z,76.61
2023-03-11T06:48:46.614Z,76.51
2023-03-11T06:49:46.605Z,77.66
2023-03-11T06:50:48.466Z,78.21
2023-03-11T06:51:46.742Z,78.42
2023-03-11T06:52:46.571Z,79.46
2023-03-11T06:53:46.593Z,79.67
2023-03-11T06:54:46.581Z,79.22
2023-03-11T06:55:46.554Z,78.59
2023-03-11T06:56:46.576Z,78.34
2023-03-11T06:57:46.539Z,78.80
2023-03-11T06:58:46.531Z,79.01
2023-03-11T06:59:46.548Z,79.01
2023-03-11T07:00:46.568Z,79.11
2023-03-11T07:01:46.522Z,79.22
2023-03-11T07:02:46.523Z,79.01
2023-03-11T07:03:46.545Z,79.94
2023-03-11T07:04:46.533Z,80.78
2023-03-11T07:05:46.498Z,80.47
2023-03-11T07:06:46.495Z,80.36
2023-03-11T07:07:46.502Z,79.53
2023-03-11T07:08:46.485Z,80.40
2023-03-11T07:09:46.473Z,80.57
2023-03-11T07:10:46.485Z,79.74
2023-03-11T07:11:46.475Z,79.43
2023-03-11T07:12:46.457Z,79.11
2023-03-11T07:13:46.455Z,79.84
2023-03-11T07:14:46.452Z,79.32
2023-03-11T07:15:46.448Z,79.63
2023-03-11T07:16:46.485Z,80.68
2023-03-11T07:17:46.438Z,79.63
2023-03-11T07:18:46.425Z,79.32
2023-03-11T07:19:46.426Z,78.24
2023-03-11T07:20:46.418Z,76.96
2023-03-11T07:21:46.409Z,77.20
2023-03-11T07:22:46.419Z,76.99
2023-03-11T07:23:46.406Z,77.03
2023-03-11T07:24:46.403Z,78.56
2023-03-11T07:25:46.391Z,78.56
2023-03-11T07:26:46.384Z,78.56
2023-03-11T07:27:46.386Z,77.41
2023-03-11T07:28:46.699Z,77.83
2023-03-11T07:29:46.373Z,76.37
2023-03-11T07:30:46.365Z,76.47
2023-03-11T07:31:46.416Z,76.89
2023-03-11T07:32:46.466Z,77.10
2023-03-11T07:33:46.358Z,77.17
2023-03-11T07:34:47.024Z,76.86
2023-03-11T07:35:46.349Z,76.26
2023-03-11T07:36:46.336Z,76.57
2023-03-11T07:37:46.322Z,76.78
2023-03-11T07:38:46.322Z,76.99
2023-03-11T07:39:46.330Z,76.54
2023-03-11T07:40:46.306Z,76.99
2023-03-11T07:41:46.302Z,76.89
2023-03-11T07:42:46.297Z,77.27
2023-03-11T07:43:46.279Z,75.71
2023-03-11T07:44:46.293Z,75.60
2023-03-11T07:45:46.346Z,74.98
2023-03-11T07:46:46.285Z,74.98
2023-03-11T07:47:46.268Z,75.92
2023-03-11T07:48:46.278Z,76.12
2023-03-11T07:49:46.259Z,75.29
2023-03-11T07:50:46.455Z,74.66
2023-03-11T07:51:46.254Z,74.60
2023-03-11T07:52:46.240Z,74.98
2023-03-11T07:53:46.236Z,74.32
2023-03-11T07:54:46.245Z,74.74
2023-03-11T07:55:46.220Z,75.12
2023-03-11T07:56:46.214Z,73.35
2023-03-11T07:57:46.209Z,73.52
2023-03-11T07:58:46.217Z,73.42
2023-03-11T07:59:46.216Z,72.24
2023-03-11T08:00:46.216Z,71.07
2023-03-11T08:01:46.184Z,70.51
2023-03-11T08:02:46.277Z,68.30
2023-03-11T08:03:46.224Z,68.17
2023-03-11T08:04:46.169Z,66.27
2023-03-11T08:05:46.160Z,65.80
2023-03-11T08:06:46.193Z,64.39
2023-03-11T08:07:46.148Z,63.44
2023-03-11T08:08:46.145Z,60.31
2023-03-11T08:09:46.171Z,54.74
2023-03-11T08:10:46.133Z,54.59
2023-03-11T08:11:47.545Z,51.68
2023-03-11T08:12:46.117Z,49.09
2023-03-11T08:13:46.124Z,47.60
2023-03-11T08:14:46.109Z,49.14
2023-03-11T08:15:46.185Z,49.21
2023-03-11T08:16:46.106Z,46.76
2023-03-11T08:17:46.099Z,47.61
2023-03-11T08:18:46.096Z,46.23
2023-03-11T08:19:46.089Z,44.69
2023-03-11T08:20:46.101Z,43.69
2023-03-11T08:21:46.087Z,42.43
2023-03-11T08:22:57.757Z,41.27
2023-03-11T08:23:47.066Z,40.83
2023-03-11T08:24:46.074Z,43.75
2023-03-11T08:25:46.074Z,43.77
2023-03-11T08:26:46.067Z,41.88
2023-03-11T08:27:46.059Z,40.61
2023-03-11T08:28:46.046Z,38.76
2023-03-11T08:29:46.023Z,39.44
2023-03-11T08:30:46.064Z,39.76
2023-03-11T08:31:46.036Z,44.57
2023-03-11T08:32:46.097Z,44.43
2023-03-11T08:33:46.002Z,45.68
2023-03-11T08:34:45.994Z,46.93
2023-03-11T08:35:46.003Z,44.33
2023-03-11T08:36:45.991Z,45.37
2023-03-11T08:37:45.962Z,48.09
2023-03-11T08:38:46.033Z,48.50
2023-03-11T08:39:45.980Z,50.18
2023-03-11T08:40:45.945Z,45.87
2023-03-11T08:41:45.951Z,47.86
2023-03-11T08:42:45.937Z,43.43
2023-03-11T08:43:45.934Z,42.71
2023-03-11T08:44:45.925Z,44.49
2023-03-11T08:45:45.943Z,45.68
2023-03-11T08:46:45.981Z,44.35
2023-03-11T08:47:45.909Z,43.84
2023-03-11T08:48:45.913Z,43.88
2023-03-11T08:49:45.889Z,42.58
2023-03-11T08:50:53.737Z,39.67
2023-03-11T08:51:46.876Z,38.73
2023-03-11T08:52:45.875Z,39.28
2023-03-11T08:53:45.859Z,39.78
2023-03-11T08:54:45.877Z,39.18
2023-03-11T08:55:45.850Z,38.38
2023-03-11T08:56:45.856Z,37.02
2023-03-11T08:57:45.831Z,39.37
2023-03-11T08:58:45.850Z,34.47
2023-03-11T08:59:45.826Z,32.20
2023-03-11T09:00:45.819Z,31.77
2023-03-11T09:01:45.820Z,30.54
2023-03-11T09:02:45.911Z,30.29
2023-03-11T09:03:45.795Z,30.87
2023-03-11T09:04:45.786Z,30.44
2023-03-11T09:05:45.815Z,31.03
2023-03-11T09:06:45.777Z,31.71
2023-03-11T09:07:45.764Z,29.95
2023-03-11T09:08:45.795Z,28.41
2023-03-11T09:09:45.763Z,32.23
2023-03-11T09:10:45.744Z,28.66
2023-03-11T09:11:45.729Z,26.43
2023-03-11T09:12:45.736Z,23.93
2023-03-11T09:13:45.747Z,25.81
2023-03-11T09:14:45.716Z,28.03
2023-03-11T09:15:45.691Z,26.38
2023-03-11T09:16:45.708Z,29.17
2023-03-11T09:17:45.685Z,30.31
2023-03-11T09:18:45.676Z,32.00
2023-03-11T09:19:45.677Z,30.04
2023-03-11T09:20:45.659Z,25.18
2023-03-11T09:21:45.650Z,29.32
2023-03-11T09:22:45.654Z,31.62
2023-03-11T09:23:45.656Z,30.93
2023-03-11T09:24:45.643Z,31.65
2023-03-11T09:25:45.614Z,33.65
2023-03-11T09:26:45.652Z,35.85
2023-03-11T09:27:45.598Z,37.81
2023-03-11T09:28:45.584Z,37.73
2023-03-11T09:29:45.573Z,37.33
2023-03-11T09:30:45.564Z,37.55
2023-03-11T09:31:45.660Z,38.29
2023-03-11T09:32:45.597Z,37.51
2023-03-11T09:33:45.539Z,40.62
2023-03-11T09:34:45.538Z,40.89
2023-03-11T09:35:45.679Z,43.09
2023-03-11T09:36:45.522Z,44.35
2023-03-11T09:37:45.521Z,45.17
2023-03-11T09:38:45.524Z,46.02
2023-03-11T09:39:45.490Z,46.33
2023-03-11T09:40:47.013Z,44.41
2023-03-11T09:41:57.541Z,44.90
2023-03-11T09:42:46.474Z,46.35
2023-03-11T09:43:45.466Z,47.81
2023-03-11T09:44:45.452Z,47.61
2023-03-11T09:45:45.443Z,48.23
2023-03-11T09:46:45.565Z,48.36
2023-03-11T09:47:45.432Z,48.07
2023-03-11T09:48:45.431Z,48.73
2023-03-11T09:49:45.422Z,49.98
2023-03-11T09:50:45.428Z,49.48
2023-03-11T09:51:45.405Z,50.41
2023-03-11T09:52:45.425Z,52.07
2023-03-11T09:53:45.399Z,52.61
2023-03-11T09:54:45.382Z,52.69
2023-03-11T09:55:45.382Z,50.72
2023-03-11T09:56:45.392Z,50.62
2023-03-11T09:57:45.356Z,50.41
2023-03-11T09:58:45.369Z,51.09
2023-03-11T09:59:45.350Z,51.79
2023-03-11T10:00:45.348Z,49.52
2023-03-11T10:01:45.392Z,49.91
2023-03-11T10:02:45.452Z,50.32
2023-03-11T10:03:45.332Z,49.37
2023-03-11T10:04:45.302Z,48.72
2023-03-11T10:05:45.296Z,48.56
2023-03-11T10:06:45.292Z,49.10
2023-03-11T10:07:45.300Z,49.62
2023-03-11T10:08:45.303Z,49.21
2023-03-11T10:09:45.272Z,48.77
2023-03-11T10:10:45.271Z,48.36
2023-03-11T10:11:45.290Z,49.37
2023-03-11T10:12:45.254Z,49.76
2023-03-11T10:13:45.245Z,47.38
2023-03-11T10:14:45.271Z,47.67
2023-03-11T10:15:45.239Z,46.43
2023-03-11T10:16:45.308Z,46.66
2023-03-11T10:17:45.238Z,47.49
2023-03-11T10:18:45.219Z,48.23
2023-03-11T10:19:45.219Z,48.56
2023-03-11T10:20:45.214Z,49.72
2023-03-11T10:21:45.194Z,50.63
2023-03-11T10:22:45.196Z,50.45
2023-03-11T10:23:45.186Z,50.32
2023-03-11T10:24:45.202Z,50.13
2023-03-11T10:25:45.173Z,48.79
2023-03-11T10:26:45.165Z,50.13
2023-03-11T10:27:45.147Z,50.45
2023-03-11T10:28:45.149Z,50.26
2023-03-11T10:29:45.140Z,50.89
2023-03-11T10:30:45.167Z,49.98
2023-03-11T10:31:45.207Z,51.24
2023-03-11T10:32:45.212Z,52.40
2023-03-11T10:33:47.636Z,52.20
2023-03-11T10:34:45.111Z,52.30
2023-03-11T10:35:45.144Z,52.51
2023-03-11T10:36:45.114Z,52.92
2023-03-11T10:37:49.735Z,53.75
2023-03-11T10:38:45.083Z,52.61
2023-03-11T10:39:45.088Z,52.59
2023-03-11T10:40:45.076Z,52.90
2023-03-11T10:41:45.118Z,54.37
2023-03-11T10:42:45.073Z,53.54
2023-03-11T10:43:45.050Z,53.36
2023-03-11T10:44:45.040Z,54.71
2023-03-11T10:45:45.090Z,54.71
2023-03-11T10:46:45.034Z,54.27
2023-03-11T10:47:45.042Z,56.13
2023-03-11T10:48:45.022Z,56.00
2023-03-11T10:49:45.044Z,53.44
2023-03-11T10:50:45.011Z,53.23
2023-03-11T10:51:45.014Z,53.56
2023-03-11T10:52:44.992Z,53.05
2023-03-11T10:53:45.011Z,55.22
2023-03-11T10:54:44.989Z,54.60
2023-03-11T10:55:44.988Z,54.58
2023-03-11T10:56:44.971Z,53.59
2023-03-11T10:57:44.967Z,51.79
2023-03-11T10:58:44.975Z,51.04
2023-03-11T10:59:44.973Z,49.21
2023-03-11T11:00:44.973Z,50.21
2023-03-11T11:01:44.955Z,50.52
2023-03-11T11:02:44.964Z,48.87
2023-03-11T11:03:44.928Z,50.21
2023-03-11T11:04:44.932Z,51.43
2023-03-11T11:05:44.920Z,49.99
2023-03-11T11:06:44.970Z,47.20
2023-03-11T11:07:44.908Z,47.02
2023-03-11T11:08:44.904Z,47.34
2023-03-11T11:09:44.915Z,49.62
2023-03-11T11:10:44.893Z,50.11
2023-03-11T11:11:44.886Z,50.32
2023-03-11T11:12:44.943Z,51.23
2023-03-11T11:13:44.884Z,50.20
2023-03-11T11:14:44.874Z,49.78
2023-03-11T11:15:44.851Z,49.44
2023-03-11T11:16:44.940Z,48.00
2023-03-11T11:17:44.842Z,49.37
2023-03-11T11:18:44.863Z,50.09
2023-03-11T11:19:44.829Z,49.10
2023-03-11T11:20:44.820Z,47.99
2023-03-11T11:21:51.835Z,50.37
2023-03-11T11:22:44.823Z,51.01
2023-03-11T11:23:44.842Z,51.11
2023-03-11T11:24:44.807Z,51.11
2023-03-11T11:25:44.791Z,51.40
2023-03-11T11:26:44.785Z,49.74
2023-03-11T11:27:44.810Z,50.55
2023-03-11T11:28:44.781Z,50.13
2023-03-11T11:29:44.782Z,48.07
2023-03-11T11:30:44.837Z,48.69
2023-03-11T11:31:44.773Z,49.93
2023-03-11T11:32:44.771Z,49.41
2023-03-11T11:33:44.747Z,48.79
2023-03-11T11:34:44.748Z,50.76
2023-03-11T11:35:44.761Z,49.82
2023-03-11T11:36:44.723Z,48.63
2023-03-11T11:37:44.722Z,49.22
2023-03-11T11:38:44.734Z,48.53
2023-03-11T11:39:44.693Z,48.73
2023-03-11T11:40:44.713Z,50.29
2023-03-11T11:41:44.713Z,50.49
2023-03-11T11:42:44.718Z,49.54
2023-03-11T11:43:44.681Z,49.95
2023-03-11T11:44:44.678Z,49.22
2023-03-11T11:45:44.746Z,48.79
2023-03-11T11:46:44.660Z,48.27
2023-03-11T11:47:44.684Z,49.91
2023-03-11T11:48:44.686Z,50.01
2023-03-11T11:49:44.638Z,47.22
2023-03-11T11:50:44.665Z,48.66
2023-03-11T11:51:44.671Z,49.70
2023-03-11T11:52:45.263Z,48.17
2023-03-11T11:53:44.631Z,48.09
2023-03-11T11:54:44.624Z,48.27
2023-03-11T11:55:44.664Z,47.78
2023-03-11T11:56:44.621Z,49.02
2023-03-11T11:57:44.600Z,50.37
2023-03-11T11:58:44.583Z,49.66
2023-03-11T11:59:44.605Z,50.29
2023-03-11T12:00:44.581Z,49.66
2023-03-11T12:01:44.571Z,50.70
2023-03-11T12:02:44.612Z,48.63
2023-03-11T12:03:44.629Z,48.34
2023-03-11T12:04:44.562Z,47.52
2023-03-11T12:05:44.606Z,47.14
2023-03-11T12:06:44.559Z,48.61
2023-03-11T12:07:44.536Z,50.59
2023-03-11T12:08:44.548Z,52.04
2023-03-11T12:09:44.570Z,51.60
2023-03-11T12:10:44.573Z,50.56
2023-03-11T12:11:44.528Z,50.02
2023-03-11T12:12:44.549Z,49.61
2023-03-11T12:13:44.545Z,50.02
2023-03-11T12:14:44.542Z,50.82
2023-03-11T12:15:44.526Z,50.51
2023-03-11T12:16:44.488Z,51.14
2023-03-11T12:17:44.477Z,51.86
2023-03-11T12:18:44.487Z,51.21
2023-03-11T12:19:44.474Z,50.70
2023-03-11T12:20:44.477Z,50.49
2023-03-11T12:21:44.461Z,50.68
2023-03-11T12:22:44.471Z,50.37
2023-03-11T12:23:44.453Z,50.90
2023-03-11T12:24:44.453Z,51.09
2023-03-11T12:25:44.443Z,50.49
2023-03-11T12:26:44.439Z,50.93
2023-03-11T12:27:44.445Z,50.54
2023-03-11T12:28:44.421Z,51.26
2023-03-11T12:29:44.443Z,52.51
2023-03-11T12:30:44.412Z,52.38
2023-03-11T12:31:44.414Z,52.38
2023-03-11T12:32:44.446Z,50.80
2023-03-11T12:33:44.398Z,50.49
2023-03-11T12:34:44.405Z,50.89
2023-03-11T12:35:44.422Z,51.09
2023-03-11T12:36:44.384Z,51.09
2023-03-11T12:37:44.391Z,50.26
2023-03-11T12:38:44.364Z,50.39
2023-03-11T12:39:44.357Z,49.58
2023-03-11T12:40:44.413Z,47.22
2023-03-11T12:41:44.357Z,49.07
2023-03-11T12:42:44.369Z,49.91
2023-03-11T12:43:44.370Z,50.74
2023-03-11T12:44:44.335Z,50.10
2023-03-11T12:45:44.328Z,48.99
2023-03-11T12:46:44.344Z,48.78
2023-03-11T12:47:44.330Z,48.57
2023-03-11T12:48:44.316Z,49.71
2023-03-11T12:49:44.344Z,49.91
2023-03-11T12:50:44.307Z,50.74
2023-03-11T12:51:44.303Z,51.99
2023-03-11T12:52:44.306Z,52.82